createdAt,value
2022-12-04T00:01:57.678Z,20.24
2022-12-04T00:05:00.687Z,20.22
2022-12-04T00:08:03.807Z,20.23
2022-12-04T00:11:09.178Z,20.23
2022-12-04T00:14:12.248Z,20.20
2022-12-04T00:17:16.648Z,20.20
2022-12-04T00:20:19.977Z,20.18
2022-12-04T00:23:22.926Z,20.18
2022-12-04T00:26:27.831Z,20.18
2022-12-04T00:29:31.443Z,20.17
2022-12-04T00:32:35.959Z,20.16
2022-12-04T00:35:39.035Z,20.16
2022-12-04T00:38:42.822Z,20.14
2022-12-04T00:41:45.879Z,20.14
2022-12-04T00:44:48.905Z,20.14
2022-12-04T00:47:53.206Z,20.12
2022-12-04T00:50:56.262Z,20.13
2022-12-04T00:53:59.248Z,20.12
2022-12-04T00:57:02.243Z,20.10
2022-12-04T01:00:06.147Z,20.10
2022-12-04T01:03:11.067Z,20.06
2022-12-04T01:06:22.001Z,20.05
2022-12-04T01:09:24.976Z,20.05
2022-12-04T01:12:28.031Z,20.04
2022-12-04T01:15:31.007Z,20.04
2022-12-04T01:18:35.355Z,20.04
2022-12-04T01:21:38.968Z,20.03
2022-12-04T01:24:42.027Z,20.03
2022-12-04T01:27:45.046Z,20.03
2022-12-04T01:31:01.342Z,20.03
2022-12-04T01:34:05.746Z,20.02
2022-12-04T01:37:08.907Z,20.01
2022-12-04T01:40:17.801Z,20.00
2022-12-04T01:43:21.626Z,20.00
2022-12-04T01:46:24.645Z,19.99
2022-12-04T01:49:32.828Z,19.99
2022-12-04T01:52:35.792Z,20.01
2022-12-04T01:55:39.015Z,20.00
2022-12-04T01:58:47.144Z,20.00
2022-12-04T02:01:58.262Z,20.00
2022-12-04T02:05:04.057Z,19.99
2022-12-04T02:08:07.179Z,20.00
2022-12-04T02:11:19.083Z,20.00
2022-12-04T02:14:32.210Z,19.99
2022-12-04T02:17:40.512Z,19.98
2022-12-04T02:20:51.491Z,19.97
2022-12-04T02:24:20.527Z,19.96
2022-12-04T02:27:37.229Z,19.96
2022-12-04T02:30:43.840Z,19.95
2022-12-04T02:33:53.228Z,19.95
2022-12-04T02:37:01.875Z,19.95
2022-12-04T02:40:09.448Z,19.94
2022-12-04T02:43:17.773Z,19.94
2022-12-04T02:46:27.793Z,19.94
2022-12-04T02:49:36.168Z,19.95
2022-12-04T02:52:43.453Z,19.96
2022-12-04T02:55:51.996Z,19.96
2022-12-04T02:58:58.670Z,19.95
2022-12-04T03:02:14.890Z,19.95
2022-12-04T03:05:21.926Z,19.94
2022-12-04T03:08:30.074Z,19.94
2022-12-04T03:11:37.353Z,19.93
2022-12-04T03:14:43.700Z,19.94
2022-12-04T03:17:54.410Z,19.94
2022-12-04T03:21:04.139Z,19.94
2022-12-04T03:24:14.363Z,19.93
2022-12-04T03:27:24.983Z,19.93
2022-12-04T03:30:34.018Z,19.91
2022-12-04T03:33:42.417Z,19.92
2022-12-04T03:36:51.298Z,19.93
2022-12-04T03:40:00.032Z,19.93
2022-12-04T03:43:07.277Z,19.95
2022-12-04T03:46:15.756Z,19.95
2022-12-04T03:49:24.324Z,19.94
2022-12-04T03:52:31.610Z,19.96
2022-12-04T03:55:41.742Z,19.95
2022-12-04T03:58:47.951Z,19.95
2022-12-04T04:01:52.669Z,19.94
2022-12-04T04:04:59.986Z,19.94
2022-12-04T04:08:20.075Z,19.94
2022-12-04T04:11:28.837Z,19.93
2022-12-04T04:14:55.906Z,19.93
2022-12-04T04:18:17.271Z,19.92
2022-12-04T04:21:45.091Z,19.93
2022-12-04T04:24:51.819Z,19.92
2022-12-04T04:27:56.286Z,19.91
2022-12-04T04:31:08.073Z,19.91
2022-12-04T04:34:19.571Z,19.90
2022-12-04T04:37:32.250Z,19.89
2022-12-04T04:40:39.612Z,19.90
2022-12-04T04:43:52.396Z,19.88
2022-12-04T04:47:01.347Z,19.88
2022-12-04T04:50:08.341Z,19.88
2022-12-04T04:53:17.170Z,19.89
2022-12-04T04:56:21.106Z,19.89
2022-12-04T04:59:24.114Z,19.89
2022-12-04T05:02:27.725Z,19.89
2022-12-04T05:05:30.760Z,19.89
2022-12-04T05:08:35.313Z,19.89
2022-12-04T05:11:38.318Z,19.90
2022-12-04T05:14:41.398Z,19.90
2022-12-04T05:17:44.324Z,19.89
2022-12-04T05:20:47.334Z,19.89
2022-12-04T05:23:52.203Z,19.89
2022-12-04T05:26:55.098Z,19.87
2022-12-04T05:29:59.634Z,19.87
2022-12-04T05:33:02.867Z,19.88
2022-12-04T05:36:08.162Z,19.89
2022-12-04T05:39:12.779Z,19.88
2022-12-04T05:42:16.202Z,19.86
2022-12-04T05:45:19.302Z,19.86
2022-12-04T05:48:22.459Z,19.86
2022-12-04T05:51:25.436Z,19.86
2022-12-04T05:54:29.758Z,19.84
2022-12-04T05:57:32.686Z,19.85
2022-12-04T06:00:35.819Z,19.85
2022-12-04T06:03:38.845Z,19.85
2022-12-04T06:06:41.836Z,19.84
2022-12-04T06:09:46.290Z,19.85
2022-12-04T06:12:49.263Z,19.85
2022-12-04T06:15:52.250Z,19.86
2022-12-04T06:18:57.274Z,19.86
2022-12-04T06:22:00.238Z,19.86
2022-12-04T06:25:04.754Z,19.86
2022-12-04T06:28:07.695Z,19.85
2022-12-04T06:31:12.931Z,19.86
2022-12-04T06:34:15.960Z,19.86
2022-12-04T06:37:18.979Z,19.87
2022-12-04T06:40:23.314Z,19.86
2022-12-04T06:43:26.602Z,19.85
2022-12-04T06:46:31.386Z,19.86
2022-12-04T06:49:34.369Z,19.85
2022-12-04T06:52:37.395Z,19.86
2022-12-04T06:55:48.741Z,19.86
2022-12-04T06:58:53.797Z,19.86
2022-12-04T07:01:56.859Z,19.86
2022-12-04T07:04:59.914Z,19.84
2022-12-04T07:08:03.015Z,19.84
2022-12-04T07:11:07.866Z,19.84
2022-12-04T07:14:11.049Z,19.83
2022-12-04T07:17:14.079Z,19.83
2022-12-04T07:20:17.184Z,19.84
2022-12-04T07:23:20.197Z,19.82
2022-12-04T07:26:25.311Z,19.84
2022-12-04T07:29:28.311Z,19.83
2022-12-04T07:32:31.277Z,19.83
2022-12-04T07:35:34.495Z,19.84
2022-12-04T07:38:37.573Z,19.84
2022-12-04T07:41:41.842Z,19.84
2022-12-04T07:44:44.999Z,19.84
2022-12-04T07:47:48.090Z,19.84
2022-12-04T07:50:51.154Z,19.84
2022-12-04T07:53:55.259Z,19.84
2022-12-04T07:56:59.793Z,19.84
2022-12-04T08:00:02.753Z,19.85
2022-12-04T08:03:14.735Z,19.85
2022-12-04T08:06:19.920Z,19.84
2022-12-04T08:09:22.867Z,19.84
2022-12-04T08:12:27.163Z,19.84
2022-12-04T08:15:30.486Z,19.85
2022-12-04T08:18:33.725Z,19.85
2022-12-04T08:21:36.741Z,19.85
2022-12-04T08:24:39.724Z,19.85
2022-12-04T08:27:47.726Z,19.84
2022-12-04T08:30:50.919Z,19.83
2022-12-04T08:33:56.922Z,19.83
2022-12-04T08:36:59.986Z,19.82
2022-12-04T08:40:03.018Z,19.82
2022-12-04T08:43:07.406Z,19.82
2022-12-04T08:46:12.198Z,19.82
2022-12-04T08:49:15.199Z,19.81
2022-12-04T08:52:18.364Z,19.82
2022-12-04T08:55:21.367Z,19.83
2022-12-04T08:58:25.807Z,19.84
2022-12-04T09:01:29.834Z,19.83
2022-12-04T09:04:32.875Z,19.82
2022-12-04T09:07:35.996Z,19.82
2022-12-04T09:10:39.587Z,19.81
2022-12-04T09:13:45.094Z,19.82
2022-12-04T09:16:48.151Z,19.83
2022-12-04T09:19:51.256Z,19.82
2022-12-04T09:23:03.800Z,19.82
2022-12-04T09:26:18.610Z,19.83
2022-12-04T09:29:22.981Z,19.82
2022-12-04T09:32:25.903Z,19.75
2022-12-04T09:35:29.805Z,19.59
2022-12-04T09:38:32.911Z,19.38
2022-12-04T09:42:26.235Z,19.20
2022-12-04T09:45:41.912Z,18.96
2022-12-04T09:48:48.559Z,18.87
2022-12-04T09:51:53.211Z,18.76
2022-12-04T09:54:58.180Z,18.73
2022-12-04T09:58:05.339Z,18.68
2022-12-04T10:01:20.659Z,18.65
2022-12-04T10:04:23.871Z,18.57
2022-12-04T10:07:33.369Z,18.54
2022-12-04T10:10:40.586Z,18.51
2022-12-04T10:14:04.983Z,18.50
2022-12-04T10:17:26.568Z,18.51
2022-12-04T10:21:02.848Z,18.56
2022-12-04T10:24:17.607Z,18.58
2022-12-04T10:27:24.474Z,18.59
2022-12-04T10:30:30.657Z,18.62
2022-12-04T10:33:38.957Z,18.64
2022-12-04T10:36:46.597Z,18.68
2022-12-04T10:39:55.117Z,18.73
2022-12-04T10:43:05.864Z,18.75
2022-12-04T10:46:13.872Z,18.80
2022-12-04T10:49:21.246Z,18.86
2022-12-04T10:52:24.275Z,18.92
2022-12-04T10:55:32.117Z,18.98
2022-12-04T10:58:35.117Z,19.05
2022-12-04T11:01:38.188Z,19.11
2022-12-04T11:04:42.829Z,19.17
2022-12-04T11:07:48.792Z,19.25
2022-12-04T11:10:58.825Z,19.33
2022-12-04T11:14:06.797Z,19.38
2022-12-04T11:17:18.205Z,19.43
2022-12-04T11:20:24.473Z,19.47
2022-12-04T11:23:33.636Z,19.48
2022-12-04T11:26:38.995Z,19.49
2022-12-04T11:29:45.878Z,19.50
2022-12-04T11:32:49.199Z,19.50
2022-12-04T11:35:56.381Z,19.53
2022-12-04T11:39:08.487Z,19.57
2022-12-04T11:42:19.959Z,19.57
2022-12-04T11:45:24.592Z,19.58
2022-12-04T11:48:29.853Z,19.56
2022-12-04T11:51:47.746Z,19.55
2022-12-04T11:55:01.242Z,19.54
2022-12-04T11:58:24.017Z,19.52
2022-12-04T12:01:41.497Z,19.50
2022-12-04T12:05:03.782Z,19.54
2022-12-04T12:08:17.066Z,19.57
2022-12-04T12:11:26.055Z,19.64
2022-12-04T12:14:41.085Z,19.71
2022-12-04T12:17:51.425Z,19.79
2022-12-04T12:21:02.970Z,19.84
2022-12-04T12:24:33.109Z,19.90
2022-12-04T12:27:51.014Z,19.99
2022-12-04T12:31:10.707Z,20.06
2022-12-04T12:34:19.386Z,20.14
2022-12-04T12:37:27.808Z,20.23
2022-12-04T12:40:36.289Z,20.30
2022-12-04T12:43:41.125Z,20.37
2022-12-04T12:46:51.889Z,20.43
2022-12-04T12:50:00.930Z,20.49
2022-12-04T12:53:12.790Z,20.54
2022-12-04T12:56:19.209Z,20.56
2022-12-04T12:59:25.224Z,20.58
2022-12-04T13:02:31.405Z,20.60
2022-12-04T13:05:38.710Z,20.63
2022-12-04T13:08:49.459Z,20.68
2022-12-04T13:12:00.203Z,20.73
2022-12-04T13:15:03.354Z,20.75
2022-12-04T13:18:10.482Z,20.80
2022-12-04T13:21:31.467Z,20.85
2022-12-04T13:24:57.829Z,20.90
2022-12-04T13:28:15.736Z,20.94
2022-12-04T13:31:29.167Z,20.98
2022-12-04T13:34:46.954Z,21.01
2022-12-04T13:38:12.672Z,21.03
2022-12-04T13:41:19.346Z,21.03
2022-12-04T13:44:25.511Z,21.02
2022-12-04T13:47:31.722Z,21.01
2022-12-04T13:50:36.794Z,21.00
2022-12-04T13:53:40.431Z,20.99
2022-12-04T13:56:45.815Z,20.97
2022-12-04T13:59:50.606Z,20.95
2022-12-04T14:02:56.234Z,20.95
2022-12-04T14:06:00.374Z,20.93
2022-12-04T14:09:06.126Z,20.91
2022-12-04T14:12:12.815Z,20.91
2022-12-04T14:15:24.327Z,20.90
2022-12-04T14:18:30.436Z,20.89
2022-12-04T14:21:40.530Z,20.89
2022-12-04T14:24:43.592Z,20.89
2022-12-04T14:27:51.820Z,20.89
2022-12-04T14:31:30.211Z,20.90
2022-12-04T14:34:37.399Z,20.91
2022-12-04T14:37:50.638Z,20.90
2022-12-04T14:40:58.180Z,20.88
2022-12-04T14:44:01.699Z,20.85
2022-12-04T14:47:15.479Z,20.83
2022-12-04T14:50:30.821Z,20.79
2022-12-04T14:53:41.929Z,20.76
2022-12-04T14:56:57.484Z,20.73
2022-12-04T15:00:01.635Z,20.73
2022-12-04T15:03:04.941Z,20.72
2022-12-04T15:06:16.938Z,20.72
2022-12-04T15:09:42.014Z,20.72
2022-12-04T15:12:48.532Z,20.72
2022-12-04T15:15:52.637Z,20.73
2022-12-04T15:18:56.951Z,20.72
2022-12-04T15:22:01.350Z,20.72
2022-12-04T15:25:06.083Z,20.69
2022-12-04T15:28:14.106Z,20.67
2022-12-04T15:31:20.769Z,20.66
2022-12-04T15:34:28.779Z,20.66
2022-12-04T15:37:34.297Z,20.64
2022-12-04T15:40:37.238Z,20.64
2022-12-04T15:43:42.306Z,20.63
2022-12-04T15:46:45.969Z,20.62
2022-12-04T15:49:49.516Z,20.62
2022-12-04T15:52:59.997Z,20.63
2022-12-04T15:56:05.357Z,20.60
2022-12-04T15:59:18.530Z,20.61
2022-12-04T16:02:25.877Z,20.58
2022-12-04T16:05:34.914Z,20.58
2022-12-04T16:08:41.541Z,20.56
2022-12-04T16:11:45.131Z,20.56
2022-12-04T16:14:48.079Z,20.56
2022-12-04T16:17:51.966Z,20.56
2022-12-04T16:20:55.538Z,20.55
2022-12-04T16:24:03.990Z,20.58
2022-12-04T16:27:12.599Z,20.59
2022-12-04T16:30:15.966Z,20.59
2022-12-04T16:33:19.164Z,20.62
2022-12-04T16:36:22.412Z,20.63
2022-12-04T16:39:26.906Z,20.64
2022-12-04T16:42:30.780Z,20.65
2022-12-04T16:45:36.118Z,20.66
2022-12-04T16:48:39.075Z,20.67
2022-12-04T16:51:49.541Z,20.68
2022-12-04T16:54:54.033Z,20.69
2022-12-04T16:57:57.243Z,20.71
2022-12-04T17:01:00.437Z,20.69
2022-12-04T17:04:03.504Z,20.71
2022-12-04T17:07:06.522Z,20.71
2022-12-04T17:10:12.775Z,20.70
2022-12-04T17:13:17.850Z,20.69
2022-12-04T17:16:20.902Z,20.69
2022-12-04T17:19:23.902Z,20.67
2022-12-04T17:22:27.325Z,20.65
2022-12-04T17:25:32.451Z,20.64
2022-12-04T17:28:36.445Z,20.62
2022-12-04T17:31:39.547Z,20.62
2022-12-04T17:34:42.610Z,20.62
2022-12-04T17:37:45.908Z,20.61
2022-12-04T17:41:00.904Z,20.61
2022-12-04T17:44:04.362Z,20.61
2022-12-04T17:47:07.566Z,20.59
2022-12-04T17:50:11.365Z,20.58
2022-12-04T17:53:14.506Z,20.56
2022-12-04T17:56:20.752Z,20.55
2022-12-04T17:59:23.777Z,20.54
2022-12-04T18:02:26.869Z,20.54
2022-12-04T18:05:30.122Z,20.54
2022-12-04T18:08:33.146Z,20.55
2022-12-04T18:11:40.650Z,20.56
2022-12-04T18:14:43.770Z,20.57
2022-12-04T18:17:46.798Z,20.58
2022-12-04T18:21:01.287Z,20.59
2022-12-04T18:24:06.070Z,20.59
2022-12-04T18:27:10.679Z,20.61
2022-12-04T18:30:14.210Z,20.62
2022-12-04T18:33:19.077Z,20.64
2022-12-04T18:36:23.838Z,20.66
2022-12-04T18:39:27.396Z,20.68
2022-12-04T18:42:33.169Z,20.70
2022-12-04T18:45:36.168Z,20.70
2022-12-04T18:48:40.202Z,20.71
2022-12-04T18:51:49.170Z,20.71
2022-12-04T18:54:52.478Z,20.70
2022-12-04T18:57:57.834Z,20.69
2022-12-04T19:01:06.102Z,20.69
2022-12-04T19:04:11.812Z,20.67
2022-12-04T19:07:14.735Z,20.66
2022-12-04T19:10:18.066Z,20.65
2022-12-04T19:13:22.469Z,20.65
2022-12-04T19:16:25.545Z,20.64
2022-12-04T19:19:31.602Z,20.64
2022-12-04T19:22:35.514Z,20.62
2022-12-04T19:25:38.867Z,20.61
2022-12-04T19:28:43.309Z,20.60
2022-12-04T19:31:46.311Z,20.59
2022-12-04T19:34:49.693Z,20.57
2022-12-04T19:37:53.205Z,20.58
2022-12-04T19:41:11.226Z,20.57
2022-12-04T19:47:38.662Z,20.56
2022-12-04T19:50:41.698Z,20.56
2022-12-04T19:53:45.696Z,20.56
2022-12-04T19:56:52.453Z,20.55
2022-12-04T19:59:56.911Z,20.55
2022-12-04T20:03:00.051Z,20.57
2022-12-04T20:06:03.976Z,20.58
2022-12-04T20:09:08.978Z,20.59
2022-12-04T20:12:12.007Z,20.61
2022-12-04T20:15:16.724Z,20.64
2022-12-04T20:18:20.284Z,20.68
2022-12-04T20:21:28.231Z,20.70
2022-12-04T20:24:31.233Z,20.72
2022-12-04T20:27:34.953Z,20.72
2022-12-04T20:30:39.355Z,20.72
2022-12-04T20:33:42.751Z,20.72
2022-12-04T20:36:47.237Z,20.71
2022-12-04T20:39:50.173Z,20.71
2022-12-04T20:42:53.199Z,20.69
2022-12-04T20:45:57.722Z,20.69
2022-12-04T20:49:01.669Z,20.69
2022-12-04T20:52:05.365Z,20.67
2022-12-04T20:55:09.627Z,20.67
2022-12-04T20:58:12.617Z,20.67
2022-12-04T21:01:19.109Z,20.65
2022-12-04T21:04:23.014Z,20.64
2022-12-04T21:07:26.079Z,20.63
2022-12-04T21:10:29.081Z,20.62
2022-12-04T21:13:49.546Z,20.60
2022-12-04T21:16:54.047Z,20.60
2022-12-04T21:20:00.310Z,20.60
2022-12-04T21:23:05.866Z,20.60
2022-12-04T21:26:08.915Z,20.59
2022-12-04T21:29:12.547Z,20.59
2022-12-04T21:32:17.677Z,20.57
2022-12-04T21:35:20.697Z,20.56
2022-12-04T21:38:23.694Z,20.55
2022-12-04T21:41:44.394Z,20.54
2022-12-04T21:44:47.627Z,20.53
2022-12-04T21:47:51.958Z,20.55
2022-12-04T21:50:55.123Z,20.56
2022-12-04T21:53:58.306Z,20.57
2022-12-04T21:57:01.399Z,20.58
2022-12-04T22:00:05.816Z,20.59
2022-12-04T22:03:10.222Z,20.60
2022-12-04T22:06:13.321Z,20.62
2022-12-04T22:09:16.722Z,20.63
2022-12-04T22:12:48.432Z,20.64
2022-12-04T22:15:44.683Z,20.65
2022-12-04T22:18:49.031Z,20.67
2022-12-04T22:21:52.047Z,20.68
2022-12-04T22:24:55.061Z,20.69
2022-12-04T22:27:58.429Z,20.68
2022-12-04T22:31:05.389Z,20.68
2022-12-04T22:34:11.765Z,20.68
2022-12-04T22:37:14.707Z,20.67
2022-12-04T22:40:18.000Z,20.65
2022-12-04T22:43:20.966Z,20.64
2022-12-04T22:46:24.095Z,20.63
2022-12-04T22:49:28.486Z,20.64
2022-12-04T22:52:31.710Z,20.63
2022-12-04T22:55:36.426Z,20.62
2022-12-04T22:58:40.010Z,20.60
2022-12-04T23:01:43.075Z,20.60
2022-12-04T23:04:47.550Z,20.59
2022-12-04T23:07:50.724Z,20.57
2022-12-04T23:10:53.819Z,20.55
2022-12-04T23:14:00.154Z,20.54
2022-12-04T23:17:03.341Z,20.53
2022-12-04T23:20:10.274Z,20.53
2022-12-04T23:23:13.246Z,20.52
2022-12-04T23:26:19.307Z,20.53
2022-12-04T23:29:52.915Z,20.53
2022-12-04T23:32:45.156Z,20.52
2022-12-04T23:35:54.154Z,20.51
2022-12-04T23:38:57.238Z,20.51
2022-12-04T23:42:00.198Z,20.50
2022-12-04T23:45:03.173Z,20.51
2022-12-04T23:48:06.818Z,20.50
2022-12-04T23:51:13.320Z,20.52
2022-12-04T23:54:16.286Z,20.53
2022-12-04T23:57:19.255Z,20.54
